Time;durP1;ratioP1;P1;durP2;ratioP2;P2;SDS_P1;SDS_P2;PMS_P1;PMS_P2;Temp;Humidity;BMP_temperature;BMP_pressure;BME280_temperature;BME280_humidity;BME280_pressure;Samples;Min_cycle;Max_cycle;Signal;HPM_P1;HPM_P2
2022/04/04 00:01:30;;;;;;;33.75;17.50;;;;;;;-1.34;78.88;98168.30;1743390;82;20994;-56
2022/04/04 00:03:57;;;;;;;39.53;20.68;;;;;;;-1.35;78.64;98171.98;1752166;80;21009;-57
2022/04/04 00:06:27;;;;;;;32.90;17.07;;;;;;;-1.37;78.76;98173.49;1770858;80;21437;-57
2022/04/04 00:08:53;;;;;;;27.65;15.65;;;;;;;-1.35;78.79;98170.15;1773189;80;21318;-57
2022/04/04 00:11:20;;;;;;;31.05;16.70;;;;;;;-1.36;78.97;98168.52;1773829;80;20997;-57
2022/04/04 00:13:47;;;;;;;34.50;17.85;;;;;;;-1.34;78.71;98170.45;1756795;80;21017;-57
2022/04/04 00:16:14;;;;;;;33.28;17.05;;;;;;;-1.37;78.62;98168.17;1743280;82;21045;-57
2022/04/04 00:18:41;;;;;;;31.93;15.80;;;;;;;-1.39;78.63;98166.75;1741712;82;21469;-57
2022/04/04 00:21:08;;;;;;;28.50;14.10;;;;;;;-1.39;78.69;98171.55;1737066;82;21059;-57
2022/04/04 00:23:35;;;;;;;29.35;15.63;;;;;;;-1.39;78.59;98164.91;1749051;80;21037;-57
2022/04/04 00:26:04;;;;;;;24.60;13.80;;;;;;;-1.39;78.53;98162.76;1742827;81;21419;-56
2022/04/04 00:28:31;;;;;;;27.80;14.43;;;;;;;-1.39;78.42;98166.23;1743803;80;21367;-57
2022/04/04 00:30:58;;;;;;;31.75;16.42;;;;;;;-1.42;78.41;98162.66;1742878;82;21000;-57
2022/04/04 00:33:25;;;;;;;28.27;14.60;;;;;;;-1.42;78.56;98161.33;1742952;82;21574;-57
2022/04/04 00:35:52;;;;;;;23.95;12.68;;;;;;;-1.39;78.43;98165.41;1743010;82;21021;-57
2022/04/04 00:38:19;;;;;;;32.90;17.00;;;;;;;-1.36;78.27;98159.72;1743040;82;21042;-57
2022/04/04 00:40:46;;;;;;;30.95;15.08;;;;;;;-1.39;78.59;98162.76;1743039;82;21041;-57
2022/04/04 00:43:13;;;;;;;28.65;15.55;;;;;;;-1.40;78.54;98169.09;1742969;81;21434;-57
2022/04/04 00:45:46;;;;;;;24.32;14.98;;;;;;;-1.44;78.53;98171.34;1743125;82;21061;-56
2022/04/04 00:48:13;;;;;;;30.88;17.40;;;;;;;-1.45;78.60;98161.23;1741752;81;21411;-55
2022/04/04 00:50:40;;;;;;;26.35;14.73;;;;;;;-1.47;78.50;98161.91;1743184;82;21062;-56
2022/04/04 00:53:08;;;;;;;34.15;14.93;;;;;;;-1.48;78.45;98158.13;1743201;82;20974;-56
2022/04/04 00:55:35;;;;;;;33.65;18.48;;;;;;;-1.49;78.31;98155.98;1773792;80;20998;-56
2022/04/04 00:58:02;;;;;;;28.87;16.35;;;;;;;-1.51;78.55;98158.54;1765722;80;21347;-56
2022/04/04 01:00:29;;;;;;;34.08;16.45;;;;;;;-1.53;78.54;98161.40;1772258;80;20984;-58
2022/04/04 01:02:56;;;;;;;30.35;16.90;;;;;;;-1.50;78.46;98146.38;1767212;80;21014;-58
2022/04/04 01:05:23;;;;;;;29.63;14.90;;;;;;;-1.50;78.59;98153.02;1757751;80;21036;-58
2022/04/04 01:07:50;;;;;;;29.72;13.70;;;;;;;-1.49;78.53;98144.02;1768629;80;20997;-57
2022/04/04 01:10:17;;;;;;;27.52;14.05;;;;;;;-1.50;78.43;98143.72;1743105;82;21056;-58
2022/04/04 01:12:54;;;;;;;27.93;13.75;;;;;;;-1.50;78.54;98142.39;1743205;81;21062;-58
2022/04/04 01:15:23;;;;;;;26.35;12.05;;;;;;;-1.49;78.25;98140.55;1743155;82;21009;-58
2022/04/04 01:17:50;;;;;;;;;;;;;;;-1.52;78.22;98150.26;1745716;82;20962;-57
2022/04/04 01:20:18;;;;;;;23.55;12.98;;;;;;;-1.55;78.33;98142.66;1769738;80;20188;-58
2022/04/04 01:22:48;;;;;;;25.95;15.08;;;;;;;-1.55;78.46;98142.16;1773082;80;21050;-57
2022/04/04 01:25:16;;;;;;;35.08;15.38;;;;;;;-1.56;78.40;98147.16;1747423;80;21422;-57
2022/04/04 01:27:46;;;;;;;23.38;14.18;;;;;;;-1.56;78.59;98147.67;1743161;82;21590;-58
2022/04/04 01:30:13;;;;;;;32.23;17.42;;;;;;;-1.61;78.50;98133.67;1743073;82;20996;-57
2022/04/04 01:32:40;;;;;;;34.90;17.73;;;;;;;-1.62;78.70;98139.16;1743204;81;21140;-57
2022/04/04 01:35:09;;;;;;;37.65;16.93;;;;;;;-1.62;78.82;98141.81;1743167;81;21454;-58
2022/04/04 01:37:37;;;;;;;;;;;;;;;-1.66;78.78;98138.75;1745748;82;20978;-57
2022/04/04 01:40:07;;;;;;;40.88;20.27;;;;;;;-1.69;79.13;98136.50;1743115;82;20170;-57
2022/04/04 01:42:35;;;;;;;34.78;18.55;;;;;;;-1.69;78.86;98132.52;1743149;81;21249;-57
2022/04/04 01:45:06;;;;;;;26.87;14.20;;;;;;;-1.70;78.92;98130.88;1743073;82;21058;-57
2022/04/04 01:47:32;;;;;;;37.08;16.87;;;;;;;-1.69;78.75;98131.70;1742000;81;21617;-56
2022/04/04 01:49:59;;;;;;;25.10;14.07;;;;;;;-1.71;79.23;98126.55;1743134;82;21002;-56
2022/04/04 01:52:26;;;;;;;25.27;12.95;;;;;;;-1.73;79.06;98128.59;1721563;81;21422;-56
2022/04/04 01:54:53;;;;;;;24.47;12.43;;;;;;;-1.71;78.89;98131.87;1757671;81;21001;-57
2022/04/04 01:57:20;;;;;;;23.95;12.13;;;;;;;-1.69;79.00;98127.20;1764053;81;20954;-56
2022/04/04 01:59:47;;;;;;;23.38;13.50;;;;;;;-1.71;78.95;98126.08;1763422;80;22009;-57
2022/04/04 02:02:14;;;;;;;27.17;14.45;;;;;;;-1.71;78.93;98125.22;1773934;80;20978;-57
2022/04/04 02:04:41;;;;;;;21.42;12.28;;;;;;;-1.71;78.86;98127.88;1751147;80;21025;-57
2022/04/04 02:07:08;;;;;;;20.92;13.35;;;;;;;-1.73;78.84;98122.77;1773794;80;21048;-56
2022/04/04 02:09:35;;;;;;;23.30;13.72;;;;;;;-1.74;78.68;98123.80;1745884;80;21573;-56
2022/04/04 02:12:02;;;;;;;25.30;13.40;;;;;;;-1.73;78.63;98123.28;1743264;82;21294;-56
2022/04/04 02:14:29;;;;;;;27.75;13.50;;;;;;;-1.76;78.78;98118.37;1743046;82;21058;-57
2022/04/04 02:16:56;;;;;;;22.30;13.10;;;;;;;-1.78;78.80;98118.58;1743218;82;21656;-57
2022/04/04 02:19:23;;;;;;;26.35;12.80;;;;;;;-1.77;78.94;98118.07;1742730;82;21046;-57
2022/04/04 02:21:50;;;;;;;21.55;13.32;;;;;;;-1.77;78.88;98110.10;1743491;82;21021;-57
2022/04/04 02:24:17;;;;;;;19.10;10.80;;;;;;;-1.77;78.85;98109.59;1756868;80;21657;-57
2022/04/04 02:26:44;;;;;;;25.05;17.35;;;;;;;-1.76;78.67;98102.44;1773566;80;21033;-57
2022/04/04 02:29:11;;;;;;;22.10;14.93;;;;;;;-1.77;78.58;98100.80;1760465;80;21023;-56
2022/04/04 02:31:38;;;;;;;21.85;12.03;;;;;;;-1.79;78.54;98101.01;1742989;82;20998;-56
2022/04/04 02:34:05;;;;;;;22.10;13.38;;;;;;;-1.78;78.47;98098.66;1735537;81;21017;-57
2022/04/04 02:36:32;;;;;;;20.95;13.20;;;;;;;-1.78;78.49;98096.00;1733847;82;21561;-57
2022/04/04 02:38:59;;;;;;;25.02;14.10;;;;;;;-1.76;78.53;98093.14;1753244;80;21423;-57
2022/04/04 02:41:25;;;;;;;10.72;5.65;;;;;;;-1.76;78.50;98095.28;1743069;82;20990;-57
2022/04/04 02:43:52;;;;;;;19.20;8.63;;;;;;;-1.73;78.38;98086.09;1743102;81;21030;-57
2022/04/04 02:46:19;;;;;;;20.45;10.55;;;;;;;-1.75;78.22;98090.28;1743044;82;20986;-57
2022/04/04 02:48:46;;;;;;;29.00;13.98;;;;;;;-1.79;78.21;98086.91;1750140;80;21438;-57
2022/04/04 02:51:13;;;;;;;37.23;16.85;;;;;;;-1.80;78.16;98084.73;1773590;80;21040;-57
2022/04/04 02:53:40;;;;;;;38.65;20.43;;;;;;;-1.83;78.08;98080.34;1767144;80;21010;-57
2022/04/04 02:58:52;;;;;;;40.17;20.10;;;;;;;-1.85;78.13;98084.52;1743627;80;21001;-56
2022/04/04 03:01:20;;;;;;;27.82;15.38;;;;;;;-1.84;78.39;98083.50;1743073;82;21364;-56
2022/04/04 03:03:47;;;;;;;30.10;13.28;;;;;;;-1.83;78.33;98086.98;1743277;81;21021;-57
2022/04/04 03:06:15;;;;;;;21.77;13.45;;;;;;;-1.85;77.87;98083.20;1768587;80;20993;-56
2022/04/04 03:08:42;;;;;;;23.02;13.15;;;;;;;-1.93;77.96;98083.88;1757843;80;21415;-56
2022/04/04 03:11:09;;;;;;;16.93;8.58;;;;;;;-1.95;78.34;98088.06;1743151;81;21001;-56
2022/04/04 03:13:36;;;;;;;28.83;14.13;;;;;;;-1.94;78.50;98086.23;1753321;80;20987;-56
2022/04/04 03:16:04;;;;;;;22.42;11.40;;;;;;;-2.02;78.34;98092.02;1743179;82;20978;-56
2022/04/04 03:18:33;;;;;;;17.12;11.10;;;;;;;-2.08;78.84;98092.80;1742920;82;21494;-56
2022/04/04 03:21:00;;;;;;;20.52;10.30;;;;;;;-2.06;78.56;98089.42;1743123;82;20962;-56
2022/04/04 03:23:27;;;;;;;16.15;9.38;;;;;;;-2.10;79.21;98089.52;1755716;80;21044;-56
2022/04/04 03:25:54;;;;;;;21.57;10.78;;;;;;;-2.09;78.78;98087.17;1773649;80;21645;-55
2022/04/04 03:28:21;;;;;;;19.12;10.75;;;;;;;-2.09;79.02;98083.20;1762182;80;21017;-56
2022/04/04 03:30:48;;;;;;;20.88;10.28;;;;;;;-2.08;78.97;98084.01;1743110;82;21012;-56
2022/04/04 03:33:15;;;;;;;35.40;17.32;;;;;;;-2.15;79.41;98085.30;1743966;80;20973;-56
2022/04/04 03:35:42;;;;;;;27.13;13.60;;;;;;;-2.18;79.19;98087.03;1743223;81;21407;-56
2022/04/04 03:38:11;;;;;;;26.50;13.85;;;;;;;-2.19;78.90;98085.91;1742973;81;20991;-56
2022/04/04 03:40:38;;;;;;;16.50;10.35;;;;;;;-2.27;79.68;98090.87;1743213;82;21048;-56
2022/04/04 03:43:05;;;;;;;17.50;9.18;;;;;;;-2.38;80.40;98092.75;1743117;82;21415;-56
2022/04/04 03:45:32;;;;;;;48.40;24.12;;;;;;;-2.36;79.58;98090.72;1743247;82;21443;-56
2022/04/04 03:47:59;;;;;;;26.40;13.40;;;;;;;-2.32;79.21;98085.31;1743000;81;20997;-56
2022/04/04 03:50:27;;;;;;;28.15;13.25;;;;;;;-2.31;78.99;98083.81;1743131;82;21261;-56
2022/04/04 03:52:55;;;;;;;26.42;14.25;;;;;;;-2.35;78.84;98081.73;1743181;81;21030;-56
2022/04/04 03:55:26;;;;;;;37.73;26.17;;;;;;;-2.41;79.32;98082.00;1742978;82;20990;-56
2022/04/04 03:57:53;;;;;;;48.08;22.30;;;;;;;-2.47;79.40;98080.66;1742945;81;21627;-56
2022/04/04 04:00:21;;;;;;;18.90;9.20;;;;;;;-2.47;78.96;98074.84;1743190;80;21066;-56
2022/04/04 04:02:49;;;;;;;39.65;20.43;;;;;;;-2.45;78.68;98074.13;1743267;81;21017;-56
2022/04/04 04:05:16;;;;;;;49.15;25.23;;;;;;;-2.50;79.08;98082.35;1756279;80;21182;-56
2022/04/04 04:07:43;;;;;;;39.95;19.07;;;;;;;-2.53;78.93;98078.77;1770779;80;21062;-55
2022/04/04 04:10:13;;;;;;;67.85;34.27;;;;;;;-2.54;79.11;98076.62;1743414;81;21232;-56
2022/04/04 04:12:40;;;;;;;40.67;19.70;;;;;;;-2.61;79.56;98071.27;1743455;82;21207;-56
2022/04/04 04:15:10;;;;;;;155.67;69.92;;;;;;;-2.62;79.38;98070.96;1743426;82;21365;-56
2022/04/04 04:17:37;;;;;;;77.78;36.63;;;;;;;-2.62;79.81;98075.45;1743305;81;21054;-56
2022/04/04 04:20:22;;;;;;;65.25;29.72;;;;;;;-2.65;79.62;98075.34;1743431;80;21010;-56
2022/04/04 04:23:02;;;;;;;40.35;21.68;;;;;;;-2.67;79.37;98075.20;1743426;81;21068;-56
2022/04/04 04:25:30;;;;;;;39.13;19.57;;;;;;;-2.68;79.52;98073.56;1742365;82;21050;-56
2022/04/04 04:28:00;;;;;;;55.48;24.82;;;;;;;-2.71;79.65;98077.94;1743529;81;21064;-56
2022/04/04 04:30:28;;;;;;;64.07;27.98;;;;;;;-2.69;79.44;98078.05;1743321;80;21092;-57
2022/04/04 04:32:55;;;;;;;21.75;12.03;;;;;;;-2.80;80.06;98084.41;1744197;80;21100;-57
2022/04/04 04:35:23;;;;;;;154.32;67.05;;;;;;;-2.88;80.75;98082.72;1743481;82;20998;-56
2022/04/04 04:37:50;;;;;;;97.82;51.35;;;;;;;-2.88;80.38;98084.86;1766837;80;20982;-56
2022/04/04 04:40:18;;;;;;;32.83;17.82;;;;;;;-2.91;80.56;98083.90;1743565;82;21889;-57
2022/04/04 04:42:45;;;;;;;73.92;35.05;;;;;;;-2.88;79.79;98082.72;1743343;82;21469;-57
2022/04/04 04:45:13;;;;;;;29.15;14.85;;;;;;;-2.93;80.18;98076.65;1743407;82;21064;-57
2022/04/04 04:47:41;;;;;;;18.57;11.08;;;;;;;-2.91;80.31;98085.23;1743578;82;21148;-57
2022/04/04 04:50:09;;;;;;;55.75;28.07;;;;;;;-2.89;79.68;98085.88;1743657;82;20982;-57
2022/04/04 04:52:36;;;;;;;24.85;10.98;;;;;;;-2.87;79.84;98090.98;1743419;82;21073;-57
2022/04/04 04:55:04;;;;;;;19.60;9.58;;;;;;;-2.82;79.47;98096.52;1743522;82;20971;-57
2022/04/04 04:57:32;;;;;;;53.10;24.82;;;;;;;-2.77;79.28;98098.09;1743346;82;26297;-57
2022/04/04 05:00:02;;;;;;;49.10;22.80;;;;;;;-2.78;79.39;98096.97;1748583;80;20997;-57
2022/04/04 05:02:27;;;;;;;64.75;31.70;;;;;;;-2.73;79.39;98099.36;1772944;80;21438;-57
2022/04/04 05:04:54;;;;;;;29.75;17.90;;;;;;;-2.69;79.25;98090.50;1752620;80;21056;-57
2022/04/04 05:07:21;;;;;;;39.45;18.02;;;;;;;-2.66;79.44;98092.75;1736593;82;21017;-57
2022/04/04 05:09:48;;;;;;;88.03;28.57;;;;;;;-2.63;79.21;98085.25;1739350;81;21288;-57
2022/04/04 05:12:16;;;;;;;118.37;57.40;;;;;;;-2.61;79.19;98086.38;1742430;80;20973;-57
2022/04/04 05:14:43;;;;;;;51.10;29.02;;;;;;;-2.56;79.07;98086.11;1768406;80;21013;-57
2022/04/04 05:17:10;;;;;;;66.10;31.55;;;;;;;-2.58;78.74;98092.09;1744428;80;21292;-56
2022/04/04 05:19:37;;;;;;;61.30;26.75;;;;;;;-2.57;78.49;98092.91;1742898;82;20998;-57
2022/04/04 05:22:05;;;;;;;35.05;14.60;;;;;;;-2.51;78.61;98081.53;1742910;82;21474;-57
2022/04/04 05:24:32;;;;;;;51.20;25.35;;;;;;;-2.42;78.44;98089.66;1758576;80;21003;-57
2022/04/04 05:26:58;;;;;;;28.40;15.83;;;;;;;-2.28;78.74;98095.87;1743130;82;20992;-56
2022/04/04 05:29:28;;;;;;;37.48;15.93;;;;;;;-2.18;78.13;98094.18;1742991;80;21036;-56
2022/04/04 05:31:55;;;;;;;29.10;13.30;;;;;;;-2.15;77.79;98100.41;1743133;82;21005;-57
2022/04/04 05:34:25;;;;;;;30.40;14.28;;;;;;;-2.15;77.71;98099.09;1742899;82;21065;-56
2022/04/04 05:36:52;;;;;;;24.20;9.85;;;;;;;-2.03;77.35;98098.86;1743055;82;20994;-57
2022/04/04 05:39:19;;;;;;;20.77;12.03;;;;;;;-1.95;77.31;98097.36;1743662;80;21056;-57
2022/04/04 05:41:46;;;;;;;20.60;10.18;;;;;;;-1.88;76.83;98104.86;1750638;80;21396;-57
2022/04/04 05:44:13;;;;;;;55.12;22.48;;;;;;;-1.50;77.56;98094.55;1740116;80;21479;-57
2022/04/04 05:46:39;;;;;;;21.60;11.12;;;;;;;-1.15;77.71;98085.09;1767800;80;20989;-57
2022/04/04 05:49:06;;;;;;;27.37;12.00;;;;;;;-0.70;77.95;98087.95;1750799;80;21027;-57
2022/04/04 05:51:33;;;;;;;46.35;17.20;;;;;;;-0.56;76.98;98085.59;1740422;82;21010;-57
2022/04/04 05:54:01;;;;;;;38.65;20.37;;;;;;;-0.44;77.06;98083.11;1740192;82;22036;-56
2022/04/04 05:56:28;;;;;;;46.25;20.23;;;;;;;-0.46;71.99;98087.31;1742788;82;21392;-57
2022/04/04 05:58:55;;;;;;;43.08;20.20;;;;;;;-0.34;75.14;98088.34;1742883;81;21010;-57
2022/04/04 06:01:22;;;;;;;27.58;13.88;;;;;;;-0.39;74.95;98086.80;1743141;82;21010;-57
2022/04/04 06:03:50;;;;;;;23.00;12.40;;;;;;;-0.20;74.85;98087.77;1754995;80;21012;-57
2022/04/04 06:06:17;;;;;;;88.27;32.88;;;;;;;0.04;74.77;98086.27;1754636;80;22048;-57
2022/04/04 06:08:44;;;;;;;137.03;49.90;;;;;;;0.15;74.06;98089.59;1749471;80;21009;-57
2022/04/04 06:11:11;;;;;;;95.38;44.15;;;;;;;0.21;73.99;98099.42;1750114;80;21021;-57
2022/04/04 06:13:39;;;;;;;34.83;17.73;;;;;;;0.24;73.96;98094.99;1748016;80;20986;-57
2022/04/04 06:16:06;;;;;;;29.15;13.25;;;;;;;0.34;73.27;98084.39;1755446;80;21001;-57
2022/04/04 06:18:34;;;;;;;26.15;13.43;;;;;;;0.48;71.58;98085.97;1760638;80;21951;-57
2022/04/04 06:21:02;;;;;;;20.48;12.78;;;;;;;0.47;71.12;98083.81;1755856;80;21580;-57
2022/04/04 06:23:30;;;;;;;18.27;11.38;;;;;;;0.42;71.10;98080.96;1684636;83;21478;-57
2022/04/04 06:25:58;;;;;;;38.92;14.85;;;;;;;0.73;71.23;98088.18;1746631;80;21073;-57
2022/04/04 06:28:27;;;;;;;43.60;23.63;;;;;;;0.81;71.00;98083.10;1746858;80;21011;-57
2022/04/04 06:30:54;;;;;;;27.90;12.70;;;;;;;0.81;70.64;98088.44;1692581;83;27014;-57
2022/04/04 06:33:21;;;;;;;62.33;34.45;;;;;;;0.78;70.08;98087.55;1741493;80;21014;-57
2022/04/04 06:35:48;;;;;;;29.37;16.25;;;;;;;0.59;68.24;98093.80;1747064;80;20988;-56
2022/04/04 06:38:18;;;;;;;30.85;15.48;;;;;;;0.47;68.77;98089.15;1764934;80;21236;-57
2022/04/04 06:40:45;;;;;;;24.25;12.58;;;;;;;0.46;68.47;98080.85;1755524;80;21628;-57
2022/04/04 06:43:12;;;;;;;20.30;12.13;;;;;;;0.38;68.97;98085.09;1746149;80;21463;-57
2022/04/04 06:45:41;;;;;;;82.72;30.48;;;;;;;0.49;68.52;98084.94;1751337;80;21309;-57
2022/04/04 06:48:09;;;;;;;254.50;118.45;;;;;;;0.58;69.32;98080.16;1767865;79;20974;-56
2022/04/04 06:50:36;;;;;;;56.05;35.17;;;;;;;0.65;69.61;98082.28;1760124;80;21028;-56
2022/04/04 06:53:04;;;;;;;47.17;28.42;;;;;;;0.73;69.14;98077.51;1743680;80;21028;-57
2022/04/04 06:55:33;;;;;;;40.28;26.10;;;;;;;0.87;69.51;98080.10;1750087;80;21022;-57
2022/04/04 06:58:00;;;;;;;32.60;18.67;;;;;;;0.94;68.13;98076.36;1745011;80;20942;-57
2022/04/04 07:00:27;;;;;;;22.10;16.30;;;;;;;0.94;66.35;98087.03;1758587;80;21437;-57
2022/04/04 07:02:55;;;;;;;24.47;12.90;;;;;;;0.99;65.36;98082.36;1752170;80;21029;-57
2022/04/04 07:05:22;;;;;;;47.73;18.02;;;;;;;1.60;67.50;98080.30;1742118;80;21072;-57
2022/04/04 07:07:50;;;;;;;27.52;15.08;;;;;;;2.29;67.65;98077.77;1741966;80;21017;-57
2022/04/04 07:10:16;;;;;;;23.67;13.35;;;;;;;2.83;66.85;98080.85;1756459;80;20978;-56
2022/04/04 07:12:43;;;;;;;19.62;13.32;;;;;;;3.20;59.53;98079.35;1758963;80;21540;-57
2022/04/04 07:15:11;;;;;;;19.90;16.52;;;;;;;3.96;60.66;98079.77;1764497;80;21110;-58
2022/04/04 07:17:39;;;;;;;33.58;21.97;;;;;;;4.30;54.51;98073.22;1750189;80;21021;-57
2022/04/04 07:20:06;;;;;;;72.65;58.02;;;;;;;5.29;60.11;98064.25;1726780;82;21041;-57
2022/04/04 07:22:38;;;;;;;14.53;10.95;;;;;;;5.42;51.91;98068.50;1769240;80;21088;-58
2022/04/04 07:25:08;;;;;;;24.98;16.52;;;;;;;6.38;59.36;98061.49;1747174;80;20971;-57
2022/04/04 07:27:36;;;;;;;19.02;14.65;;;;;;;6.93;55.91;98055.09;1750141;80;21687;-58
2022/04/04 07:30:04;;;;;;;;;;;;;;;7.09;53.34;98055.48;1744864;80;21132;-58
2022/04/04 07:32:31;;;;;;;32.20;18.65;;;;;;;8.14;55.84;98050.28;1747714;80;20554;-58
2022/04/04 07:34:58;;;;;;;26.85;16.45;;;;;;;8.56;56.61;98046.16;1728617;80;21096;-58
2022/04/04 07:37:25;;;;;;;17.12;13.22;;;;;;;9.24;53.58;98037.88;1752459;80;20970;-58
2022/04/04 07:39:51;;;;;;;13.75;9.68;;;;;;;9.11;51.69;98041.91;1754894;80;21510;-58
2022/04/04 07:42:23;;;;;;;16.70;8.70;;;;;;;9.53;46.33;98036.23;1748012;80;21088;-58
2022/04/04 07:44:47;;;;;;;10.45;6.90;;;;;;;9.24;48.31;98035.17;1717970;82;21640;-58
2022/04/04 07:47:14;;;;;;;12.58;7.30;;;;;;;9.60;44.57;98035.95;1760222;80;21040;-58
2022/04/04 07:49:41;;;;;;;21.85;8.15;;;;;;;9.46;45.31;98030.28;1760352;80;20997;-57
2022/04/04 07:52:08;;;;;;;8.90;6.85;;;;;;;9.92;45.51;98030.77;1755366;80;21099;-58
2022/04/04 07:54:35;;;;;;;9.15;5.67;;;;;;;10.07;42.96;98034.20;1743402;80;21001;-56
2022/04/04 07:57:01;;;;;;;8.08;6.45;;;;;;;10.06;43.64;98031.23;1752119;79;21643;-57
2022/04/04 07:59:28;;;;;;;11.68;6.65;;;;;;;10.37;44.18;98036.03;1748910;80;21005;-58
2022/04/04 08:01:55;;;;;;;8.73;6.20;;;;;;;10.98;40.06;98024.84;1748570;80;20994;-58
2022/04/04 08:04:22;;;;;;;8.43;6.53;;;;;;;10.78;41.76;98025.53;1742859;80;21532;-57
2022/04/04 08:06:50;;;;;;;6.75;6.05;;;;;;;11.14;42.34;98024.73;1743727;80;21032;-57
2022/04/04 08:09:18;;;;;;;11.93;6.50;;;;;;;11.95;41.74;98019.13;1743948;80;49531;-58
2022/04/04 08:11:45;;;;;;;14.70;7.87;;;;;;;12.22;41.83;98020.73;1755358;80;21156;-58
2022/04/04 08:14:12;;;;;;;9.15;8.23;;;;;;;13.15;39.99;98017.78;1742442;80;21069;-58
2022/04/04 08:16:39;;;;;;;9.40;8.30;;;;;;;12.91;39.00;98016.54;1743914;80;21509;-58
2022/04/04 08:19:06;;;;;;;11.83;10.58;;;;;;;12.98;39.23;98016.14;1754942;80;21056;-57
2022/04/04 08:21:34;;;;;;;8.45;7.10;;;;;;;13.36;39.69;98010.70;1740912;82;21278;-57
2022/04/04 08:24:00;;;;;;;9.30;8.20;;;;;;;14.07;38.01;98008.04;1740781;80;21058;-57
2022/04/04 08:26:27;;;;;;;7.67;5.83;;;;;;;14.29;36.12;98002.70;1749545;80;21024;-58
2022/04/04 08:28:54;;;;;;;9.25;7.75;;;;;;;14.36;36.32;98004.46;1754102;80;21049;-58
2022/04/04 08:31:21;;;;;;;7.85;5.47;;;;;;;14.68;37.22;98003.52;1750048;80;21099;-58
2022/04/04 08:33:48;;;;;;;6.45;5.83;;;;;;;15.23;33.66;98003.34;1750145;80;21435;-57
2022/04/04 08:36:16;;;;;;;8.28;5.87;;;;;;;14.81;34.53;98002.44;1748680;80;21481;-58
2022/04/04 08:38:43;;;;;;;6.95;5.15;;;;;;;14.81;33.88;97996.42;1749765;80;21640;-56
2022/04/04 08:41:10;;;;;;;8.30;5.47;;;;;;;15.04;32.87;97997.80;1750944;80;21025;-58
2022/04/04 08:43:40;;;;;;;6.87;5.53;;;;;;;15.43;33.01;97992.47;1745019;80;21567;-57
2022/04/04 08:46:07;;;;;;;5.90;5.20;;;;;;;15.85;31.94;97990.88;1746891;80;21067;-57
2022/04/04 08:48:36;;;;;;;8.30;6.83;;;;;;;15.79;31.93;97988.84;1742867;80;21016;-57
2022/04/04 08:51:03;;;;;;;10.78;6.67;;;;;;;15.63;32.28;97983.53;1753306;80;21130;-57
2022/04/04 08:53:30;;;;;;;7.47;4.90;;;;;;;16.15;31.33;97990.05;1732629;81;21517;-58
2022/04/04 08:55:57;;;;;;;7.67;6.92;;;;;;;16.79;28.51;97988.20;1742501;80;20963;-58
2022/04/04 08:58:25;;;;;;;5.92;5.33;;;;;;;15.71;30.36;97975.38;1745341;80;21135;-57
2022/04/04 09:00:52;;;;;;;6.90;5.30;;;;;;;16.16;30.42;97978.55;1748295;80;21101;-57
2022/04/04 09:03:21;;;;;;;10.95;7.15;;;;;;;16.01;30.07;97981.15;1746403;80;21100;-58
2022/04/04 09:05:53;;;;;;;10.55;8.70;;;;;;;16.35;29.76;97977.72;1752807;80;21064;-57
2022/04/04 09:08:20;;;;;;;8.48;7.25;;;;;;;16.51;30.11;97973.41;1743304;80;20997;-56
2022/04/04 09:10:47;;;;;;;16.32;11.95;;;;;;;16.49;29.39;97970.73;1745045;80;21080;-56
2022/04/04 09:13:17;;;;;;;15.03;11.00;;;;;;;16.60;29.37;97981.06;1742145;80;21013;-57
2022/04/04 09:16:02;;;;;;;9.95;5.87;;;;;;;16.24;29.98;97967.64;1742580;80;21577;-57
2022/04/04 09:18:40;;;;;;;26.77;17.15;;;;;;;14.14;31.06;97959.40;1746742;80;21036;-57
2022/04/04 09:21:20;;;;;;;28.35;17.40;;;;;;;11.83;34.74;97957.09;1710641;82;21076;-56
2022/04/04 09:23:54;;;;;;;38.33;21.82;;;;;;;10.43;36.38;97954.21;1744326;80;21156;-56
2022/04/04 09:26:43;;;;;;;10.35;7.20;;;;;;;9.43;38.35;97955.11;1744322;82;21002;-57
2022/04/04 09:29:22;;;;;;;20.17;12.63;;;;;;;8.46;39.81;97948.38;1746347;80;20950;-56
2022/04/04 09:32:03;;;;;;;22.67;11.75;;;;;;;7.60;41.98;97948.82;1741612;82;21021;-55
2022/04/04 09:34:28;;;;;;;27.35;16.85;;;;;;;7.24;42.69;97938.38;1750740;80;21068;-57
2022/04/04 09:36:55;;;;;;;14.07;8.23;;;;;;;6.74;44.37;97942.31;1759239;80;21582;-55
2022/04/04 09:39:22;;;;;;;12.40;7.58;;;;;;;6.52;44.89;97936.21;1745731;80;20994;-56
2022/04/04 09:41:49;;;;;;;10.45;7.22;;;;;;;6.09;45.66;97937.94;1750566;80;21072;-57
2022/04/04 09:44:16;;;;;;;11.78;7.67;;;;;;;5.97;47.29;97935.09;1741991;80;21139;-57
2022/04/04 09:46:44;;;;;;;9.83;7.20;;;;;;;5.61;47.43;97920.66;1696381;80;21537;-56
2022/04/04 09:49:17;;;;;;;12.33;7.37;;;;;;;5.44;48.19;97926.63;1743970;80;21092;-56
2022/04/04 09:51:52;;;;;;;12.88;9.25;;;;;;;5.38;49.35;97936.51;1749383;80;20939;-56
2022/04/04 09:54:23;;;;;;;12.40;8.75;;;;;;;5.27;49.81;97923.97;1749847;80;21647;-56
2022/04/04 09:56:56;;;;;;;11.93;6.47;;;;;;;5.23;49.66;97916.14;1752632;80;21092;-56
2022/04/04 09:59:23;;;;;;;10.68;8.35;;;;;;;5.36;50.33;97914.95;1742424;80;20998;-56
2022/04/04 10:01:50;;;;;;;10.93;7.95;;;;;;;5.39;51.10;97915.82;1700397;80;21378;-56
2022/04/04 10:04:17;;;;;;;10.18;6.60;;;;;;;5.34;50.99;97911.71;1749572;80;21360;-56
2022/04/04 10:06:47;;;;;;;14.78;10.20;;;;;;;5.37;51.65;97912.02;1750287;80;21096;-56
2022/04/04 10:09:13;;;;;;;10.53;8.33;;;;;;;5.24;52.52;97898.95;1742839;80;20998;-56
2022/04/04 10:11:40;;;;;;;16.93;11.15;;;;;;;5.30;51.54;97899.84;1744434;80;21953;-57
2022/04/04 10:14:07;;;;;;;18.15;11.75;;;;;;;5.36;52.22;97897.49;1743731;80;21001;-56
2022/04/04 10:16:34;;;;;;;12.43;9.18;;;;;;;5.48;51.81;97894.70;1742755;80;21137;-56
2022/04/04 10:19:01;;;;;;;11.95;8.65;;;;;;;5.53;52.18;97886.69;1747024;80;20977;-57
2022/04/04 10:21:28;;;;;;;14.43;9.93;;;;;;;5.51;51.86;97891.51;1759303;80;21435;-57
2022/04/04 10:24:00;;;;;;;11.60;8.33;;;;;;;5.34;51.08;97878.12;1742222;80;21033;-56
2022/04/04 10:26:30;;;;;;;11.70;8.63;;;;;;;5.33;51.36;97881.87;1728255;80;21045;-57
2022/04/04 10:29:12;;;;;;;14.38;9.80;;;;;;;5.35;51.75;97882.44;1747499;80;21055;-45
2022/04/04 10:31:44;;;;;;;13.35;8.98;;;;;;;5.25;51.89;97865.66;1745093;80;21474;-43
2022/04/04 10:34:13;;;;;;;13.08;6.47;;;;;;;5.31;51.82;97871.38;1750352;80;23033;-45
2022/04/04 10:36:59;;;;;;;9.50;6.03;;;;;;;5.48;52.45;97866.48;1746427;80;21035;-43
2022/04/04 10:39:35;;;;;;;12.65;8.55;;;;;;;5.48;52.15;97861.11;1736564;80;22946;-44
2022/04/04 10:42:03;;;;;;;9.50;6.25;;;;;;;5.50;52.40;97860.32;1745978;80;21005;-43
2022/04/04 10:44:49;;;;;;;13.58;7.05;;;;;;;5.55;51.18;97857.67;1745002;80;21017;-43
2022/04/04 10:47:20;;;;;;;11.60;6.65;;;;;;;5.47;51.39;97854.92;1739869;80;21077;-43
2022/04/04 10:49:47;;;;;;;7.28;4.20;;;;;;;5.48;51.91;97857.89;1751418;80;21044;-43
2022/04/04 10:52:19;;;;;;;12.40;8.38;;;;;;;5.45;51.10;97848.96;1743530;80;21042;-43
2022/04/04 10:54:46;;;;;;;10.38;7.33;;;;;;;5.33;51.68;97850.98;1747860;80;20986;-43
2022/04/04 10:57:17;;;;;;;8.20;5.90;;;;;;;5.30;51.61;97850.14;1751388;80;21017;-45
2022/04/04 10:59:47;;;;;;;19.77;11.28;;;;;;;5.29;51.59;97847.95;1742471;80;21076;-43
2022/04/04 11:02:18;;;;;;;10.55;6.87;;;;;;;5.28;52.34;97853.05;1751383;80;21386;-43
2022/04/04 11:10:08;;;;;;;14.47;9.93;;;;;;;5.42;52.78;97838.73;1753896;80;20970;-56
2022/04/04 11:13:00;;;;;;;17.67;10.23;;;;;;;5.37;52.10;97830.06;1749449;80;21032;-57
2022/04/04 11:15:55;;;;;;;12.25;7.72;;;;;;;5.33;52.45;97843.73;1750811;80;21037;-57
2022/04/04 11:18:32;;;;;;;12.88;7.85;;;;;;;5.38;51.84;97824.16;1700825;83;22174;-57
2022/04/04 11:21:03;;;;;;;16.10;7.92;;;;;;;5.36;51.45;97834.34;1702973;82;21019;-57
2022/04/04 11:23:37;;;;;;;16.87;10.13;;;;;;;5.44;52.20;97827.72;1681577;83;21727;-56
2022/04/04 11:26:04;;;;;;;9.85;5.40;;;;;;;5.55;52.12;97820.05;1743218;80;21458;-56
2022/04/04 11:28:35;;;;;;;9.58;5.10;;;;;;;5.70;51.86;97814.84;1752614;80;21013;-57
2022/04/04 11:31:09;;;;;;;13.28;8.50;;;;;;;5.79;50.97;97812.51;1743412;80;21693;-56
2022/04/04 11:33:47;;;;;;;15.80;9.23;;;;;;;5.72;51.29;97807.33;1705897;82;21036;-56
2022/04/04 11:36:24;;;;;;;89.90;38.40;;;;;;;5.84;51.55;97801.81;1711146;83;21040;-56
2022/04/04 11:38:51;;;;;;;16.42;9.83;;;;;;;5.92;51.95;97805.42;1708022;82;21189;-56